SÍGUENOS

APP INUMET

Disponible en Google Play

Productos aeronáuticos

  • SIGMET
  • METAR / SPECI
  • TAF
  • AIREP
  • Aviso de aeródromo
  • Pronárea
  • Carta superficie

Mensajes METAR de la última hora

SUMU 17070Z 03008KT CAVOK 17/16 Q1012 NOSIG
SUMU 17070Z 03008KT CAVOK 17/16 Q1012 NOSIG
SULS 170700Z 04006KT 360V080 CAVOK 18/16 Q1012
SUMU 170700Z 17070Z 03008KT CAVOK 17/16 Q1012 NOSIG

Mensajes METAR de la última hora - Internacionales


Argentina
SAAR 170700Z 07004KT CAVOK 19/15 Q1008
SABE 170700Z 34008KT CAVOK 20/17 Q1011
SACO 170700Z 02012KT CAVOK 21/14 Q1008
SAEZ 170700Z 36006KT CAVOK 21/15 Q1010
Bolivia
SLLP 170700Z 02006KT 8000 -RA FEW004 SCT010 OVC070 04/02 Q1040
Brasil
SBSP 170711Z AUTO 12006KT 080V150 9999 FEW008 BKN011 BKN014 17/14 Q1023
SBBR 170700Z 08010KT CAVOK 23/12 Q1020
SBFI 170700Z 10007KT CAVOK 23/18 Q1013
SBFL 170700Z 02007KT 9999 SCT027 BKN045 20/14 Q1022
SBGR 170700Z 09007KT 9999 BKN010 17/16 Q1022
SBPA 170700Z 12003KT CAVOK 18/17 Q1016
SBRJ 170700Z 13004KT 9999 OVC025 22/18 Q1021
SBSP 170700Z AUTO 14007KT 9999 FEW009 BKN012 17/14 Q1023
Chile
SCCI 170700Z 31009KT CAVOK 01/M01 Q0983 NOSIG
SCEL 170700Z VRB02KT 5000 2000NE BR FEW020 07/06 Q1018 BECMG 3000 BR
Ecuador
SEQM 170700Z 00000KT 9999 FEW005 SCT100 10/09 Q1023 NOSIG RMK A3022
EEUU
KMIA 170653Z 00000KT 10SM FEW025 FEW250 25/24 A2995 RMK AO2 SLP141 T02500239 $
KDCA 170652Z 34008KT 10SM CLR 10/04 A3029 RMK AO2 SLP255 T01000039
KIAD 170652Z 34006KT 10SM CLR 08/02 A3028 RMK AO2 SLP253 T00830022
KJFK 170651Z 33009KT 10SM CLR 07/00 A3025 RMK AO2 SLP243 T00720000
KLGA 170651Z 33009KT 10SM CLR 08/01 A3024 RMK AO2 SLP240 T00830011
Francia
LFPO 170700Z 36003KT 340V040 9999 FEW040 BKN250 13/12 Q1022 NOSIG
LFPO 170630Z 01004KT CAVOK 13/11 Q1022 NOSIG
Paraguay
SGAS 170700Z 06008KT CAVOK 27/19 Q1009
Venezuela
SVMI 061800Z 05006KT 9999 SCT016 32/23 Q1012

* Datos extraidos del Text DataServer de la NOAA (NOAA TEXT DATA SERVER)

Instituto Uruguayo de Meteorología

Dr. Javier Barrios Amorín 1488 - CP 11200
Mesa Central (598) 1895 - Desde el interior 21895

Montevideo - Uruguay